sensor_id;sensor_type;location;lat;lon;timestamp;pressure;altitude;pressure_sealevel;temperature;humidity
48089;BME280;33867;50.314;7.802;2022-08-05T00:01:53;100112.88;;;23.28;nan
48089;BME280;33867;50.314;7.802;2022-08-05T00:08:43;100104.69;;;23.10;nan
48089;BME280;33867;50.314;7.802;2022-08-05T00:12:02;100074.41;;;22.61;nan
48089;BME280;33867;50.314;7.802;2022-08-05T00:15:23;100106.38;;;22.92;nan
48089;BME280;33867;50.314;7.802;2022-08-05T00:18:45;100102.53;;;23.12;nan
48089;BME280;33867;50.314;7.802;2022-08-05T00:22:07;100087.66;;;22.83;nan
48089;BME280;33867;50.314;7.802;2022-08-05T00:25:32;100081.19;;;22.95;nan
48089;BME280;33867;50.314;7.802;2022-08-05T00:28:51;100092.38;;;23.12;nan
48089;BME280;33867;50.314;7.802;2022-08-05T00:32:10;100064.88;;;23.00;nan
48089;BME280;33867;50.314;7.802;2022-08-05T00:35:31;100049.66;;;23.16;nan
48089;BME280;33867;50.314;7.802;2022-08-05T00:38:51;100014.19;;;23.15;nan
48089;BME280;33867;50.314;7.802;2022-08-05T00:42:10;99969.72;;;22.76;nan
48089;BME280;33867;50.314;7.802;2022-08-05T00:45:30;99894.59;;;22.29;nan
48089;BME280;33867;50.314;7.802;2022-08-05T00:48:49;99848.06;;;22.04;nan
48089;BME280;33867;50.314;7.802;2022-08-05T00:52:17;99935.06;;;22.15;nan
48089;BME280;33867;50.314;7.802;2022-08-05T00:55:57;100048.72;;;22.37;nan
48089;BME280;33867;50.314;7.802;2022-08-05T00:59:24;100077.38;;;22.41;nan
48089;BME280;33867;50.314;7.802;2022-08-05T01:02:53;100071.13;;;22.16;nan
48089;BME280;33867;50.314;7.802;2022-08-05T01:10:18;100029.94;;;21.73;nan
48089;BME280;33867;50.314;7.802;2022-08-05T01:23:31;99995.47;;;21.83;nan
48089;BME280;33867;50.314;7.802;2022-08-05T01:26:53;99992.03;;;22.13;nan
48089;BME280;33867;50.314;7.802;2022-08-05T01:30:16;99986.25;;;22.21;nan
48089;BME280;33867;50.314;7.802;2022-08-05T01:33:44;99970.41;;;22.41;nan
48089;BME280;33867;50.314;7.802;2022-08-05T01:37:14;99959.31;;;22.48;nan
48089;BME280;33867;50.314;7.802;2022-08-05T01:40:34;99948.16;;;22.31;nan
48089;BME280;33867;50.314;7.802;2022-08-05T01:43:57;99947.22;;;22.37;nan
48089;BME280;33867;50.314;7.802;2022-08-05T01:47:19;99948.56;;;22.16;nan
48089;BME280;33867;50.314;7.802;2022-08-05T01:50:40;99921.66;;;22.07;nan
48089;BME280;33867;50.314;7.802;2022-08-05T01:54:02;99943.56;;;22.25;nan
48089;BME280;33867;50.314;7.802;2022-08-05T01:57:31;99930.19;;;22.17;nan
48089;BME280;33867;50.314;7.802;2022-08-05T02:00:51;99933.84;;;22.29;nan
48089;BME280;33867;50.314;7.802;2022-08-05T02:04:13;99926.84;;;22.15;nan
48089;BME280;33867;50.314;7.802;2022-08-05T02:07:35;99931.47;;;22.33;nan
48089;BME280;33867;50.314;7.802;2022-08-05T02:10:59;99932.91;;;22.35;nan
48089;BME280;33867;50.314;7.802;2022-08-05T02:14:48;99924.91;;;22.34;nan
48089;BME280;33867;50.314;7.802;2022-08-05T02:18:30;99928.97;;;22.13;nan
48089;BME280;33867;50.314;7.802;2022-08-05T02:21:59;99932.16;;;22.10;nan
48089;BME280;33867;50.314;7.802;2022-08-05T02:25:25;99949.81;;;22.32;nan
48089;BME280;33867;50.314;7.802;2022-08-05T02:28:46;99967.06;;;22.39;nan
48089;BME280;33867;50.314;7.802;2022-08-05T02:32:08;99995.38;;;22.33;nan
48089;BME280;33867;50.314;7.802;2022-08-05T02:35:31;100039.28;;;22.33;nan
48089;BME280;33867;50.314;7.802;2022-08-05T02:38:54;100035.00;;;22.19;nan
48089;BME280;33867;50.314;7.802;2022-08-05T02:42:14;100036.09;;;21.68;nan
48089;BME280;33867;50.314;7.802;2022-08-05T02:45:35;100064.94;;;21.96;nan
48089;BME280;33867;50.314;7.802;2022-08-05T02:48:55;100085.34;;;22.06;nan
48089;BME280;33867;50.314;7.802;2022-08-05T02:52:17;100119.94;;;22.01;nan
48089;BME280;33867;50.314;7.802;2022-08-05T02:55:36;100122.44;;;21.77;nan
48089;BME280;33867;50.314;7.802;2022-08-05T02:58:56;100124.63;;;21.69;nan
48089;BME280;33867;50.314;7.802;2022-08-05T03:02:19;100133.06;;;21.67;nan
48089;BME280;33867;50.314;7.802;2022-08-05T03:05:41;100150.50;;;21.73;nan
48089;BME280;33867;50.314;7.802;2022-08-05T03:09:04;100151.97;;;21.75;nan
48089;BME280;33867;50.314;7.802;2022-08-05T03:15:59;100115.88;;;21.78;nan
48089;BME280;33867;50.314;7.802;2022-08-05T03:19:19;100134.22;;;21.78;nan
48089;BME280;33867;50.314;7.802;2022-08-05T03:22:40;100144.78;;;21.81;nan
48089;BME280;33867;50.314;7.802;2022-08-05T03:26:01;100166.47;;;21.82;nan
48089;BME280;33867;50.314;7.802;2022-08-05T03:29:22;100201.28;;;21.82;nan
48089;BME280;33867;50.314;7.802;2022-08-05T03:32:42;100203.91;;;21.64;nan
48089;BME280;33867;50.314;7.802;2022-08-05T03:36:02;100193.84;;;21.51;nan
48089;BME280;33867;50.314;7.802;2022-08-05T03:39:21;100193.00;;;21.57;nan
48089;BME280;33867;50.314;7.802;2022-08-05T03:42:40;100194.22;;;21.61;nan
48089;BME280;33867;50.314;7.802;2022-08-05T03:46:00;100206.06;;;21.55;nan
48089;BME280;33867;50.314;7.802;2022-08-05T03:49:19;100211.97;;;21.52;nan
48089;BME280;33867;50.314;7.802;2022-08-05T03:52:49;100205.91;;;21.43;nan
48089;BME280;33867;50.314;7.802;2022-08-05T03:56:19;100195.31;;;21.53;nan
48089;BME280;33867;50.314;7.802;2022-08-05T03:59:48;100144.78;;;21.43;nan
48089;BME280;33867;50.314;7.802;2022-08-05T04:03:10;100130.38;;;21.16;nan
48089;BME280;33867;50.314;7.802;2022-08-05T04:06:32;100084.09;;;21.08;nan
48089;BME280;33867;50.314;7.802;2022-08-05T04:09:53;100058.56;;;20.76;nan
48089;BME280;33867;50.314;7.802;2022-08-05T04:13:12;100103.97;;;20.90;nan
48089;BME280;33867;50.314;7.802;2022-08-05T04:16:32;100095.94;;;20.95;nan
48089;BME280;33867;50.314;7.802;2022-08-05T04:19:53;100118.47;;;20.97;nan
48089;BME280;33867;50.314;7.802;2022-08-05T04:23:12;100118.22;;;21.05;nan
48089;BME280;33867;50.314;7.802;2022-08-05T04:26:32;100125.69;;;21.29;nan
48089;BME280;33867;50.314;7.802;2022-08-05T04:29:51;100159.59;;;21.35;nan
48089;BME280;33867;50.314;7.802;2022-08-05T04:33:11;100192.88;;;21.39;nan
48089;BME280;33867;50.314;7.802;2022-08-05T04:36:30;100202.97;;;21.38;nan
48089;BME280;33867;50.314;7.802;2022-08-05T04:39:49;100192.63;;;21.47;nan
48089;BME280;33867;50.314;7.802;2022-08-05T04:43:08;100176.97;;;21.54;nan
48089;BME280;33867;50.314;7.802;2022-08-05T04:46:28;100185.84;;;21.49;nan
48089;BME280;33867;50.314;7.802;2022-08-05T04:49:47;100166.47;;;21.51;nan
48089;BME280;33867;50.314;7.802;2022-08-05T04:53:07;100125.09;;;21.27;nan
48089;BME280;33867;50.314;7.802;2022-08-05T04:56:27;100106.75;;;21.28;nan
48089;BME280;33867;50.314;7.802;2022-08-05T04:59:49;100114.75;;;21.29;nan
48089;BME280;33867;50.314;7.802;2022-08-05T05:03:10;100127.72;;;21.47;nan
48089;BME280;33867;50.314;7.802;2022-08-05T05:06:29;100107.50;;;21.42;nan
48089;BME280;33867;50.314;7.802;2022-08-05T05:09:49;100108.91;;;21.19;nan
48089;BME280;33867;50.314;7.802;2022-08-05T05:13:12;100148.25;;;21.18;nan
48089;BME280;33867;50.314;7.802;2022-08-05T05:16:32;100150.66;;;20.95;nan
48089;BME280;33867;50.314;7.802;2022-08-05T05:19:52;100147.69;;;21.03;nan
48089;BME280;33867;50.314;7.802;2022-08-05T05:23:13;100158.78;;;21.21;nan
48089;BME280;33867;50.314;7.802;2022-08-05T05:26:32;100167.00;;;21.21;nan
48089;BME280;33867;50.314;7.802;2022-08-05T05:29:51;100164.84;;;21.37;nan
48089;BME280;33867;50.314;7.802;2022-08-05T05:33:10;100177.03;;;21.41;nan
48089;BME280;33867;50.314;7.802;2022-08-05T05:36:30;100170.88;;;20.94;nan
48089;BME280;33867;50.314;7.802;2022-08-05T05:39:49;100174.28;;;20.96;nan
48089;BME280;33867;50.314;7.802;2022-08-05T05:43:09;100167.31;;;21.00;nan
48089;BME280;33867;50.314;7.802;2022-08-05T05:46:28;100134.06;;;20.96;nan
48089;BME280;33867;50.314;7.802;2022-08-05T05:49:47;100097.94;;;21.19;nan
48089;BME280;33867;50.314;7.802;2022-08-05T05:53:06;100100.41;;;21.34;nan
48089;BME280;33867;50.314;7.802;2022-08-05T05:56:29;100143.69;;;21.57;nan
48089;BME280;33867;50.314;7.802;2022-08-05T05:59:48;100110.81;;;21.50;nan
48089;BME280;33867;50.314;7.802;2022-08-05T06:03:07;100084.88;;;21.15;nan
48089;BME280;33867;50.314;7.802;2022-08-05T06:06:28;100103.69;;;21.49;nan
48089;BME280;33867;50.314;7.802;2022-08-05T06:09:47;100109.03;;;21.69;nan
48089;BME280;33867;50.314;7.802;2022-08-05T06:13:06;100123.19;;;21.91;nan
48089;BME280;33867;50.314;7.802;2022-08-05T06:16:25;100156.81;;;22.05;nan
48089;BME280;33867;50.314;7.802;2022-08-05T06:19:45;100131.91;;;21.81;nan
48089;BME280;33867;50.314;7.802;2022-08-05T06:23:04;100120.78;;;21.00;nan
48089;BME280;33867;50.314;7.802;2022-08-05T06:26:23;100109.50;;;20.77;nan
48089;BME280;33867;50.314;7.802;2022-08-05T06:29:43;100116.59;;;20.91;nan
48089;BME280;33867;50.314;7.802;2022-08-05T06:33:02;100115.31;;;21.45;nan
48089;BME280;33867;50.314;7.802;2022-08-05T06:36:22;100101.72;;;21.18;nan
48089;BME280;33867;50.314;7.802;2022-08-05T06:39:41;100125.16;;;21.77;nan
48089;BME280;33867;50.314;7.802;2022-08-05T06:43:04;100164.00;;;22.06;nan
48089;BME280;33867;50.314;7.802;2022-08-05T06:46:24;100137.16;;;21.83;nan
48089;BME280;33867;50.314;7.802;2022-08-05T06:49:43;100142.50;;;22.53;nan
48089;BME280;33867;50.314;7.802;2022-08-05T06:53:03;100156.75;;;23.65;nan
48089;BME280;33867;50.314;7.802;2022-08-05T06:56:22;100157.13;;;24.10;nan
48089;BME280;33867;50.314;7.802;2022-08-05T06:59:41;100148.47;;;23.83;nan
48089;BME280;33867;50.314;7.802;2022-08-05T07:03:00;100146.19;;;25.49;nan
48089;BME280;33867;50.314;7.802;2022-08-05T07:06:19;100148.19;;;25.36;nan
48089;BME280;33867;50.314;7.802;2022-08-05T07:09:38;100150.59;;;25.21;nan
48089;BME280;33867;50.314;7.802;2022-08-05T07:12:58;100171.25;;;24.95;nan
48089;BME280;33867;50.314;7.802;2022-08-05T07:16:35;100159.31;;;24.66;nan
48089;BME280;33867;50.314;7.802;2022-08-05T07:20:09;100172.06;;;24.26;nan
48089;BME280;33867;50.314;7.802;2022-08-05T07:23:29;100182.66;;;24.87;nan
48089;BME280;33867;50.314;7.802;2022-08-05T07:26:48;100185.00;;;25.19;nan
48089;BME280;33867;50.314;7.802;2022-08-05T07:30:10;100192.34;;;25.13;nan
48089;BME280;33867;50.314;7.802;2022-08-05T07:33:29;100202.97;;;25.10;nan
48089;BME280;33867;50.314;7.802;2022-08-05T07:36:48;100206.22;;;25.18;nan
48089;BME280;33867;50.314;7.802;2022-08-05T07:40:08;100210.28;;;25.16;nan
48089;BME280;33867;50.314;7.802;2022-08-05T07:43:28;100220.31;;;25.22;nan
48089;BME280;33867;50.314;7.802;2022-08-05T07:46:47;100228.91;;;25.49;nan
48089;BME280;33867;50.314;7.802;2022-08-05T07:50:08;100224.53;;;25.24;nan
48089;BME280;33867;50.314;7.802;2022-08-05T07:53:27;100234.09;;;25.33;nan
48089;BME280;33867;50.314;7.802;2022-08-05T07:56:47;100237.59;;;25.29;nan
48089;BME280;33867;50.314;7.802;2022-08-05T08:00:09;100247.50;;;25.42;nan
48089;BME280;33867;50.314;7.802;2022-08-05T08:03:31;100246.84;;;25.23;nan
48089;BME280;33867;50.314;7.802;2022-08-05T08:06:51;100255.31;;;24.86;nan
48089;BME280;33867;50.314;7.802;2022-08-05T08:10:11;100255.56;;;25.08;nan
48089;BME280;33867;50.314;7.802;2022-08-05T08:13:31;100262.13;;;25.30;nan
48089;BME280;33867;50.314;7.802;2022-08-05T08:16:50;100272.88;;;25.44;nan
48089;BME280;33867;50.314;7.802;2022-08-05T08:20:09;100265.03;;;25.35;nan
48089;BME280;33867;50.314;7.802;2022-08-05T08:23:28;100270.66;;;25.17;nan
48089;BME280;33867;50.314;7.802;2022-08-05T08:26:48;100265.03;;;25.35;nan
48089;BME280;33867;50.314;7.802;2022-08-05T08:30:09;100251.59;;;25.79;nan
48089;BME280;33867;50.314;7.802;2022-08-05T08:33:30;100253.66;;;26.01;nan
48089;BME280;33867;50.314;7.802;2022-08-05T08:36:49;100239.22;;;26.27;nan
48089;BME280;33867;50.314;7.802;2022-08-05T08:40:10;100244.03;;;26.82;nan
48089;BME280;33867;50.314;7.802;2022-08-05T08:43:30;100236.97;;;27.08;nan
48089;BME280;33867;50.314;7.802;2022-08-05T08:46:51;100242.66;;;27.62;nan
48089;BME280;33867;50.314;7.802;2022-08-05T08:50:11;100226.81;;;27.79;nan
48089;BME280;33867;50.314;7.802;2022-08-05T08:53:36;100225.25;;;28.15;nan
48089;BME280;33867;50.314;7.802;2022-08-05T08:56:57;100227.88;;;28.00;nan
48089;BME280;33867;50.314;7.802;2022-08-05T09:00:17;100226.47;;;27.71;nan
48089;BME280;33867;50.314;7.802;2022-08-05T09:03:37;100222.94;;;27.58;nan
48089;BME280;33867;50.314;7.802;2022-08-05T09:06:56;100233.22;;;27.36;nan
48089;BME280;33867;50.314;7.802;2022-08-05T09:10:16;100239.75;;;27.30;nan
48089;BME280;33867;50.314;7.802;2022-08-05T09:13:36;100259.06;;;27.68;nan
48089;BME280;33867;50.314;7.802;2022-08-05T09:16:55;100266.53;;;27.68;nan
48089;BME280;33867;50.314;7.802;2022-08-05T09:20:14;100261.34;;;27.33;nan
48089;BME280;33867;50.314;7.802;2022-08-05T09:23:34;100256.09;;;27.31;nan
48089;BME280;33867;50.314;7.802;2022-08-05T09:26:57;100232.69;;;27.39;nan
48089;BME280;33867;50.314;7.802;2022-08-05T09:30:16;100234.44;;;27.23;nan
48089;BME280;33867;50.314;7.802;2022-08-05T09:33:53;100226.88;;;27.19;nan
48089;BME280;33867;50.314;7.802;2022-08-05T09:37:21;100203.69;;;27.42;nan
48089;BME280;33867;50.314;7.802;2022-08-05T09:40:41;100207.09;;;27.71;nan
48089;BME280;33867;50.314;7.802;2022-08-05T09:44:01;100220.50;;;28.11;nan
48089;BME280;33867;50.314;7.802;2022-08-05T09:47:24;100239.59;;;28.07;nan
48089;BME280;33867;50.314;7.802;2022-08-05T09:50:48;100250.66;;;28.07;nan
48089;BME280;33867;50.314;7.802;2022-08-05T09:54:09;100261.91;;;27.74;nan
48089;BME280;33867;50.314;7.802;2022-08-05T09:57:35;100250.97;;;27.40;nan
48089;BME280;33867;50.314;7.802;2022-08-05T10:00:58;100245.19;;;27.03;nan
48089;BME280;33867;50.314;7.802;2022-08-05T10:04:17;100239.84;;;26.63;nan
48089;BME280;33867;50.314;7.802;2022-08-05T10:07:51;100246.00;;;26.19;nan
48089;BME280;33867;50.314;7.802;2022-08-05T10:11:15;100257.19;;;26.41;nan
48089;BME280;33867;50.314;7.802;2022-08-05T10:14:37;100253.56;;;26.74;nan
48089;BME280;33867;50.314;7.802;2022-08-05T10:18:15;100274.41;;;27.16;nan
48089;BME280;33867;50.314;7.802;2022-08-05T10:21:35;100281.72;;;27.05;nan
48089;BME280;33867;50.314;7.802;2022-08-05T10:24:54;100298.94;;;26.95;nan
48089;BME280;33867;50.314;7.802;2022-08-05T10:28:20;100306.06;;;26.58;nan
48089;BME280;33867;50.314;7.802;2022-08-05T10:31:40;100308.81;;;26.41;nan
48089;BME280;33867;50.314;7.802;2022-08-05T10:34:59;100315.81;;;25.91;nan
48089;BME280;33867;50.314;7.802;2022-08-05T10:38:45;100314.69;;;25.64;nan
48089;BME280;33867;50.314;7.802;2022-08-05T10:42:44;100316.41;;;25.42;nan
48089;BME280;33867;50.314;7.802;2022-08-05T10:46:07;100314.50;;;25.42;nan
48089;BME280;33867;50.314;7.802;2022-08-05T10:49:27;100301.69;;;26.16;nan
48089;BME280;33867;50.314;7.802;2022-08-05T10:53:07;100308.75;;;27.42;nan
48089;BME280;33867;50.314;7.802;2022-08-05T10:56:50;100321.03;;;27.89;nan
48089;BME280;33867;50.314;7.802;2022-08-05T11:00:15;100324.06;;;28.96;nan
48089;BME280;33867;50.314;7.802;2022-08-05T11:04:05;100330.34;;;29.23;nan
48089;BME280;33867;50.314;7.802;2022-08-05T11:07:25;100330.44;;;28.96;nan
48089;BME280;33867;50.314;7.802;2022-08-05T11:16:20;100339.88;;;29.37;nan
48089;BME280;33867;50.314;7.802;2022-08-05T11:19:43;100335.22;;;29.06;nan
48089;BME280;33867;50.314;7.802;2022-08-05T11:27:29;100339.41;;;28.49;nan
48089;BME280;33867;50.314;7.802;2022-08-05T11:34:40;100340.53;;;28.80;nan
48089;BME280;33867;50.314;7.802;2022-08-05T11:38:00;100349.63;;;28.44;nan
48089;BME280;33867;50.314;7.802;2022-08-05T11:41:27;100331.91;;;27.57;nan
48089;BME280;33867;50.314;7.802;2022-08-05T11:44:52;100352.81;;;27.87;nan
48089;BME280;33867;50.314;7.802;2022-08-05T11:48:13;100354.69;;;27.43;nan
48089;BME280;33867;50.314;7.802;2022-08-05T11:51:33;100379.69;;;27.14;nan
48089;BME280;33867;50.314;7.802;2022-08-05T11:54:56;100389.28;;;26.78;nan
48089;BME280;33867;50.314;7.802;2022-08-05T12:03:14;100402.22;;;26.61;nan
48089;BME280;33867;50.314;7.802;2022-08-05T12:06:36;100403.41;;;26.36;nan
48089;BME280;33867;50.314;7.802;2022-08-05T12:09:59;100414.56;;;26.41;nan
48089;BME280;33867;50.314;7.802;2022-08-05T12:13:23;100412.72;;;26.07;nan
48089;BME280;33867;50.314;7.802;2022-08-05T12:16:43;100421.56;;;27.06;nan
48089;BME280;33867;50.314;7.802;2022-08-05T12:20:13;100419.91;;;28.38;nan
48089;BME280;33867;50.314;7.802;2022-08-05T12:23:35;100410.75;;;28.64;nan
48089;BME280;33867;50.314;7.802;2022-08-05T12:26:55;100414.22;;;29.03;nan
48089;BME280;33867;50.314;7.802;2022-08-05T12:33:50;100421.91;;;30.08;nan
48089;BME280;33867;50.314;7.802;2022-08-05T12:37:10;100441.75;;;30.42;nan
48089;BME280;33867;50.314;7.802;2022-08-05T12:40:30;100465.34;;;30.39;nan
48089;BME280;33867;50.314;7.802;2022-08-05T12:44:14;100468.38;;;31.26;nan
48089;BME280;33867;50.314;7.802;2022-08-05T12:47:39;100468.38;;;31.46;nan
48089;BME280;33867;50.314;7.802;2022-08-05T12:51:17;100488.13;;;30.36;nan
48089;BME280;33867;50.314;7.802;2022-08-05T12:54:39;100491.75;;;29.94;nan
48089;BME280;33867;50.314;7.802;2022-08-05T12:57:59;100483.13;;;29.86;nan
48089;BME280;33867;50.314;7.802;2022-08-05T13:01:21;100484.69;;;28.86;nan
48089;BME280;33867;50.314;7.802;2022-08-05T13:04:42;100500.44;;;28.14;nan
48089;BME280;33867;50.314;7.802;2022-08-05T13:08:06;100506.19;;;27.57;nan
48089;BME280;33867;50.314;7.802;2022-08-05T13:11:29;100506.09;;;26.90;nan
48089;BME280;33867;50.314;7.802;2022-08-05T13:14:52;100538.69;;;26.36;nan
48089;BME280;33867;50.314;7.802;2022-08-05T13:18:17;100538.34;;;25.74;nan
48089;BME280;33867;50.314;7.802;2022-08-05T13:21:36;100532.88;;;25.44;nan
48089;BME280;33867;50.314;7.802;2022-08-05T13:25:00;100547.75;;;25.01;nan
48089;BME280;33867;50.314;7.802;2022-08-05T13:28:20;100552.78;;;25.04;nan
48089;BME280;33867;50.314;7.802;2022-08-05T13:31:41;100564.97;;;24.78;nan
48089;BME280;33867;50.314;7.802;2022-08-05T13:35:01;100578.22;;;24.70;nan
48089;BME280;33867;50.314;7.802;2022-08-05T13:38:20;100577.22;;;24.64;nan
48089;BME280;33867;50.314;7.802;2022-08-05T13:41:40;100591.16;;;23.51;nan
48089;BME280;33867;50.314;7.802;2022-08-05T13:45:03;100585.44;;;23.84;nan
48089;BME280;33867;50.314;7.802;2022-08-05T13:48:25;100577.44;;;23.83;nan
48089;BME280;33867;50.314;7.802;2022-08-05T13:51:47;100587.03;;;24.42;nan
48089;BME280;33867;50.314;7.802;2022-08-05T13:55:06;100586.72;;;24.68;nan
48089;BME280;33867;50.314;7.802;2022-08-05T13:58:27;100587.03;;;24.42;nan
48089;BME280;33867;50.314;7.802;2022-08-05T14:01:47;100587.09;;;24.35;nan
48089;BME280;33867;50.314;7.802;2022-08-05T14:05:10;100585.94;;;24.43;nan
48089;BME280;33867;50.314;7.802;2022-08-05T14:08:29;100585.16;;;24.36;nan
48089;BME280;33867;50.314;7.802;2022-08-05T14:11:49;100584.25;;;24.60;nan
48089;BME280;33867;50.314;7.802;2022-08-05T14:15:10;100586.22;;;24.71;nan
48089;BME280;33867;50.314;7.802;2022-08-05T14:18:30;100590.06;;;24.70;nan
48089;BME280;33867;50.314;7.802;2022-08-05T14:22:01;100593.53;;;24.96;nan
48089;BME280;33867;50.314;7.802;2022-08-05T14:25:31;100589.47;;;25.47;nan
48089;BME280;33867;50.314;7.802;2022-08-05T14:28:50;100579.50;;;25.87;nan
48089;BME280;33867;50.314;7.802;2022-08-05T14:32:09;100587.28;;;25.90;nan
48089;BME280;33867;50.314;7.802;2022-08-05T14:35:28;100574.13;;;25.51;nan
48089;BME280;33867;50.314;7.802;2022-08-05T14:38:49;100577.06;;;25.79;nan
48089;BME280;33867;50.314;7.802;2022-08-05T14:42:08;100584.41;;;25.02;nan
48089;BME280;33867;50.314;7.802;2022-08-05T14:45:28;100577.69;;;25.40;nan
48089;BME280;33867;50.314;7.802;2022-08-05T14:48:47;100579.97;;;25.01;nan
48089;BME280;33867;50.314;7.802;2022-08-05T14:52:06;100580.28;;;24.74;nan
48089;BME280;33867;50.314;7.802;2022-08-05T14:55:26;100585.03;;;24.31;nan
48089;BME280;33867;50.314;7.802;2022-08-05T14:58:45;100581.69;;;23.47;nan
48089;BME280;33867;50.314;7.802;2022-08-05T15:02:05;100583.63;;;23.97;nan
48089;BME280;33867;50.314;7.802;2022-08-05T15:05:24;100578.00;;;24.10;nan
48089;BME280;33867;50.314;7.802;2022-08-05T15:08:45;100575.81;;;24.18;nan
48089;BME280;33867;50.314;7.802;2022-08-05T15:12:05;100581.56;;;24.35;nan
48089;BME280;33867;50.314;7.802;2022-08-05T15:15:25;100579.22;;;25.24;nan
48089;BME280;33867;50.314;7.802;2022-08-05T15:18:45;100572.88;;;25.88;nan
48089;BME280;33867;50.314;7.802;2022-08-05T15:22:04;100578.38;;;26.59;nan
48089;BME280;33867;50.314;7.802;2022-08-05T15:25:26;100581.16;;;26.35;nan
48089;BME280;33867;50.314;7.802;2022-08-05T15:28:46;100584.41;;;25.85;nan
48089;BME280;33867;50.314;7.802;2022-08-05T15:32:05;100585.00;;;24.86;nan
48089;BME280;33867;50.314;7.802;2022-08-05T15:35:26;100577.81;;;25.03;nan
48089;BME280;33867;50.314;7.802;2022-08-05T15:38:45;100585.09;;;25.27;nan
48089;BME280;33867;50.314;7.802;2022-08-05T15:42:04;100580.91;;;25.78;nan
48089;BME280;33867;50.314;7.802;2022-08-05T15:45:23;100580.97;;;25.18;nan
48089;BME280;33867;50.314;7.802;2022-08-05T15:48:43;100583.13;;;25.16;nan
48089;BME280;33867;50.314;7.802;2022-08-05T15:52:02;100580.28;;;24.56;nan
48089;BME280;33867;50.314;7.802;2022-08-05T15:55:21;100580.38;;;24.98;nan
48089;BME280;33867;50.314;7.802;2022-08-05T15:58:40;100583.59;;;25.13;nan
48089;BME280;33867;50.314;7.802;2022-08-05T16:02:00;100579.81;;;24.77;nan
48089;BME280;33867;50.314;7.802;2022-08-05T16:05:19;100583.31;;;23.61;nan
48089;BME280;33867;50.314;7.802;2022-08-05T16:08:39;100577.88;;;23.80;nan
48089;BME280;33867;50.314;7.802;2022-08-05T16:11:58;100583.13;;;23.56;nan
48089;BME280;33867;50.314;7.802;2022-08-05T16:15:18;100589.53;;;23.44;nan
48089;BME280;33867;50.314;7.802;2022-08-05T16:18:39;100586.50;;;23.83;nan
48089;BME280;33867;50.314;7.802;2022-08-05T16:21:59;100594.28;;;24.11;nan
48089;BME280;33867;50.314;7.802;2022-08-05T16:25:18;100598.34;;;23.52;nan
48089;BME280;33867;50.314;7.802;2022-08-05T16:28:38;100595.38;;;23.60;nan
48089;BME280;33867;50.314;7.802;2022-08-05T16:32:00;100605.16;;;23.81;nan
48089;BME280;33867;50.314;7.802;2022-08-05T16:35:19;100601.09;;;24.09;nan
48089;BME280;33867;50.314;7.802;2022-08-05T16:38:39;100604.53;;;24.23;nan
48089;BME280;33867;50.314;7.802;2022-08-05T16:41:58;100605.63;;;24.21;nan
48089;BME280;33867;50.314;7.802;2022-08-05T16:49:38;100608.50;;;24.27;nan
48089;BME280;33867;50.314;7.802;2022-08-05T17:07:43;100616.09;;;23.25;nan
48089;BME280;33867;50.314;7.802;2022-08-05T17:17:28;100636.69;;;23.02;nan
48089;BME280;33867;50.314;7.802;2022-08-05T17:26:10;100646.56;;;23.17;nan
48089;BME280;33867;50.314;7.802;2022-08-05T17:50:14;100686.22;;;22.56;nan
48089;BME280;33867;50.314;7.802;2022-08-05T17:53:46;100687.94;;;22.51;nan
48089;BME280;33867;50.314;7.802;2022-08-05T17:58:10;100694.25;;;22.58;nan
48089;BME280;33867;50.314;7.802;2022-08-05T18:02:54;100699.78;;;22.38;nan
48089;BME280;33867;50.314;7.802;2022-08-05T18:07:30;100709.47;;;22.07;nan
48089;BME280;33867;50.314;7.802;2022-08-05T18:17:31;100711.94;;;21.82;nan
48089;BME280;33867;50.314;7.802;2022-08-05T19:04:55;100801.56;;;20.43;nan
48089;BME280;33867;50.314;7.802;2022-08-05T19:14:31;100819.94;;;20.50;nan
48089;BME280;33867;50.314;7.802;2022-08-05T19:42:01;100870.88;;;20.51;nan
48089;BME280;33867;50.314;7.802;2022-08-05T19:55:36;100900.53;;;19.52;nan
48089;BME280;33867;50.314;7.802;2022-08-05T20:00:19;100902.25;;;19.68;nan
48089;BME280;33867;50.314;7.802;2022-08-05T20:04:47;100912.03;;;19.47;nan
48089;BME280;33867;50.314;7.802;2022-08-05T20:18:03;100941.63;;;18.37;nan
48089;BME280;33867;50.314;7.802;2022-08-05T20:22:06;100931.13;;;18.26;nan
48089;BME280;33867;50.314;7.802;2022-08-05T20:25:40;100934.28;;;18.07;nan
48089;BME280;33867;50.314;7.802;2022-08-05T20:29:47;100947.00;;;17.83;nan
48089;BME280;33867;50.314;7.802;2022-08-05T20:39:25;100948.81;;;17.44;nan
48089;BME280;33867;50.314;7.802;2022-08-05T20:54:05;100966.03;;;17.04;nan
48089;BME280;33867;50.314;7.802;2022-08-05T21:36:13;101040.03;;;16.06;nan
